Time;durP1;ratioP1;P1;durP2;ratioP2;P2;SDS_P1;SDS_P2;PMS_P1;PMS_P2;Temp;Humidity;BMP_temperature;BMP_pressure;BME280_temperature;BME280_humidity;BME280_pressure;Samples;Min_cycle;Max_cycle;Signal;HPM_P1;HPM_P2
2023/07/08 05:41:40;;;;;;;;;8.25;8.00;;;;;30.43;50.26;101225.78;4613796;23;50736;-72
2023/07/08 05:44:05;;;;;;;;;3.50;3.50;;;;;30.51;50.33;101230.81;4910877;28;50606;-71
2023/07/08 05:46:30;;;;;;;;;2.00;2.00;;;;;30.54;50.52;101246.00;4911688;28;67375;-73
2023/07/08 05:48:56;;;;;;;;;1.50;1.25;;;;;30.51;51.17;101257.91;4911751;28;50124;-74
2023/07/08 05:51:21;;;;;;;;;1.00;1.00;;;;;30.56;50.32;101274.75;4911873;28;50052;-74
2023/07/08 05:53:46;;;;;;;;;2.00;2.00;;;;;30.44;49.90;101272.72;4911595;28;50391;-74
2023/07/08 05:56:12;;;;;;;;;3.50;2.00;;;;;30.60;49.53;101273.66;4910618;28;49838;-73
2023/07/08 05:58:38;;;;;;;;;1.50;1.50;;;;;30.51;49.25;101263.31;4912442;28;49941;-73
2023/07/08 06:01:03;;;;;;;;;1.50;1.50;;;;;30.63;49.25;101268.06;4913046;28;50057;-74
2023/07/08 06:03:29;;;;;;;;;1.00;1.00;;;;;30.55;49.78;101275.72;4910373;28;49955;-73
2023/07/08 06:05:54;;;;;;;;;0.00;0.00;;;;;30.69;50.03;101284.03;4911789;28;50035;-72
2023/07/08 06:08:20;;;;;;;;;2.50;1.25;;;;;30.75;50.01;101289.09;4911891;28;50212;-74
2023/07/08 06:10:45;;;;;;;;;1.00;1.00;;;;;30.77;49.46;101295.28;4911632;28;49759;-72
2023/07/08 06:13:11;;;;;;;;;3.00;1.00;;;;;30.99;49.07;101307.69;4912007;28;50575;-73
2023/07/08 06:15:37;;;;;;;;;0.00;0.00;;;;;30.91;48.98;101318.94;4912515;28;50099;-72
2023/07/08 06:18:03;;;;;;;;;0.50;0.50;;;;;30.96;49.05;101321.38;4912803;28;49694;-72
2023/07/08 06:20:29;;;;;;;;;4.75;1.00;;;;;31.09;48.79;101332.44;4910845;28;50065;-71
2023/07/08 06:22:54;;;;;;;;;1.75;1.75;;;;;31.08;48.79;101325.25;4912544;28;49743;-72
2023/07/08 06:25:19;;;;;;;;;8.00;4.00;;;;;31.16;49.06;101331.09;4911977;28;50762;-72
2023/07/08 06:27:45;;;;;;;;;1.50;1.50;;;;;31.05;48.52;101308.19;4912135;28;49964;-71
2023/07/08 06:30:11;;;;;;;;;4.00;1.75;;;;;31.28;48.81;101333.19;4911786;28;50109;-72
2023/07/08 06:32:36;;;;;;;;;4.25;4.25;;;;;31.48;48.77;101334.75;4911765;28;51775;-72
2023/07/08 06:35:02;;;;;;;;;2.00;2.00;;;;;31.39;48.70;101338.88;4911979;28;49861;-72
2023/07/08 06:37:27;;;;;;;;;2.00;2.00;;;;;31.50;48.58;101344.56;4911892;28;50389;-73
2023/07/08 06:39:52;;;;;;;;;0.50;0.50;;;;;31.56;48.72;101346.94;4911076;28;58294;-73
2023/07/08 06:42:18;;;;;;;;;1.50;1.50;;;;;31.75;48.91;101359.41;4911950;28;57550;-73
2023/07/08 06:44:50;;;;;;;;;1.25;1.25;;;;;31.71;47.96;101355.13;4910733;28;58189;-72
2023/07/08 06:47:22;;;;;;;;;3.50;3.50;;;;;31.94;48.48;101362.81;4912030;28;50288;-72
2023/07/08 06:49:48;;;;;;;;;2.00;2.00;;;;;31.85;47.98;101355.25;4911770;28;49683;-72
2023/07/08 06:52:14;;;;;;;;;0.75;0.00;;;;;31.79;47.75;101333.88;4911679;28;51012;-74
2023/07/08 06:54:39;;;;;;;;;1.00;1.00;;;;;31.95;47.40;101355.59;4914790;28;50231;-69
2023/07/08 06:57:05;;;;;;;;;3.00;2.00;;;;;32.11;46.55;101359.97;4916359;28;49658;-69
2023/07/08 06:59:30;;;;;;;;;0.50;0.00;;;;;32.03;46.59;101373.13;4915421;28;49997;-69
2023/07/08 07:01:56;;;;;;;;;1.00;1.00;;;;;32.07;46.60;101377.44;4918166;28;50770;-71
2023/07/08 07:04:21;;;;;;;;;3.50;1.25;;;;;32.12;46.37;101372.59;4915147;28;49796;-70
2023/07/08 07:06:47;;;;;;;;;0.75;0.75;;;;;32.12;46.17;101380.75;4920865;28;49717;-70
2023/07/08 07:09:12;;;;;;;;;0.00;0.00;;;;;32.24;46.40;101381.88;4917058;28;50102;-70
2023/07/08 07:11:37;;;;;;;;;5.50;4.25;;;;;32.27;46.26;101381.69;4921072;28;50667;-69
2023/07/08 07:14:03;;;;;;;;;0.00;0.00;;;;;32.34;46.30;101391.25;4917981;28;49779;-70
2023/07/08 07:16:28;;;;;;;;;1.50;1.50;;;;;32.41;46.42;101394.44;4918371;28;50223;-70
2023/07/08 07:18:54;;;;;;;;;4.75;4.75;;;;;32.46;46.20;101397.78;4912533;28;50153;-77
2023/07/08 07:21:19;;;;;;;;;5.00;5.00;;;;;32.39;46.37;101408.13;4913812;28;51509;-82
2023/07/08 07:23:45;;;;;;;;;6.00;5.00;;;;;32.35;46.13;101403.88;4913201;28;50077;-79
2023/07/08 07:26:10;;;;;;;;;1.00;1.00;;;;;32.42;45.91;101399.78;4910518;28;50438;-86
2023/07/08 07:28:35;;;;;;;;;4.25;4.25;;;;;32.33;45.34;101392.22;4913889;28;49800;-79
2023/07/08 07:31:01;;;;;;;;;0.50;0.50;;;;;32.27;44.99;101367.22;4917251;28;50088;-76
2023/07/08 07:33:27;;;;;;;;;2.00;2.00;;;;;32.44;45.37;101386.13;4915188;28;51042;-78
2023/07/08 07:35:52;;;;;;;;;2.00;2.00;;;;;32.38;45.57;101398.25;4919664;28;50059;-77
2023/07/08 07:38:17;;;;;;;;;0.00;0.00;;;;;32.44;45.57;101400.59;4916478;28;57344;-77
2023/07/08 07:40:44;;;;;;;;;3.50;2.75;;;;;32.50;45.17;101404.75;4915399;28;50897;-74
2023/07/08 07:43:09;;;;;;;;;3.50;0.75;;;;;32.38;45.01;101403.66;4918536;28;50239;-73
2023/07/08 07:45:35;;;;;;;;;4.75;4.75;;;;;32.23;44.96;101390.09;4921948;28;49769;-73
2023/07/08 07:48:00;;;;;;;;;7.50;7.50;;;;;32.22;45.27;101410.94;4912209;28;50013;-79
2023/07/08 07:50:26;;;;;;;;;2.00;2.00;;;;;32.42;45.85;101386.19;4922188;28;51618;-69
2023/07/08 07:52:52;;;;;;;;;2.00;2.00;;;;;32.33;44.96;101403.09;4916880;28;49838;-71
2023/07/08 07:55:18;;;;;;;;;2.00;1.00;;;;;32.56;44.97;101404.41;4906716;28;50179;-71
2023/07/08 07:57:45;;;;;;;;;5.00;5.00;;;;;32.14;45.61;101392.41;4912887;28;50021;-70
2023/07/08 08:00:11;;;;;;;;;0.00;0.00;;;;;32.46;45.53;101397.78;4906103;28;51401;-70
2023/07/08 08:02:37;;;;;;;;;1.75;1.75;;;;;32.38;45.60;101406.38;4912511;28;50090;-70
2023/07/08 08:05:02;;;;;;;;;0.50;0.50;;;;;32.59;46.47;101412.34;4917218;28;50265;-71
2023/07/08 08:07:27;;;;;;;;;2.00;2.00;;;;;32.60;45.61;101415.94;4916586;28;49974;-71
2023/07/08 08:09:53;;;;;;;;;1.75;1.75;;;;;32.65;45.33;101411.13;4908901;28;67412;-71
2023/07/08 08:12:18;;;;;;;;;4.00;1.00;;;;;32.73;45.13;101409.69;4912471;28;49840;-71
2023/07/08 08:14:44;;;;;;;;;2.00;2.00;;;;;32.68;45.62;101409.06;4912512;28;51002;-71
2023/07/08 08:17:09;;;;;;;;;5.25;5.25;;;;;32.77;45.88;101412.19;4918003;28;50028;-72
2023/07/08 08:19:34;;;;;;;;;4.50;3.50;;;;;32.80;45.71;101412.00;4916279;28;67392;-70
2023/07/08 08:22:00;;;;;;;;;5.00;4.50;;;;;32.87;45.72;101413.41;4919649;28;49699;-70
2023/07/08 08:24:25;;;;;;;;;5.00;5.00;;;;;33.20;44.98;101419.47;4917165;28;49924;-72
2023/07/08 08:26:51;;;;;;;;;9.00;8.00;;;;;33.31;45.42;101408.75;4920872;28;49764;-73
2023/07/08 08:29:16;;;;;;;;;2.75;1.50;;;;;33.41;45.14;101430.84;4919585;28;50731;-72
2023/07/08 08:31:41;;;;;;;;;0.00;0.00;;;;;33.56;44.27;101434.41;4924519;28;60650;-73
2023/07/08 08:34:07;;;;;;;;;2.75;2.75;;;;;33.63;44.25;101434.91;4917977;28;50094;-72
2023/07/08 08:36:32;;;;;;;;;2.50;2.00;;;;;33.59;44.86;101440.56;4913914;28;58305;-72
2023/07/08 08:38:57;;;;;;;;;3.50;1.75;;;;;33.66;44.19;101442.84;4914099;28;73933;-72
2023/07/08 08:41:36;;;;;;;;;6.00;4.00;;;;;34.48;43.25;101448.28;4916295;28;56832;-72
2023/07/08 08:44:04;;;;;;;;;3.50;1.00;;;;;33.95;44.61;101436.38;4916250;28;50114;-72
2023/07/08 08:46:51;;;;;;;;;2.00;1.00;;;;;34.55;43.52;101440.53;4918972;28;49737;-72
2023/07/08 08:49:50;;;;;;;;;1.00;1.00;;;;;34.35;43.59;101439.16;4921907;28;51729;-71
2023/07/08 08:52:16;;;;;;;;;8.25;4.50;;;;;33.38;44.61;101436.47;4905944;28;49825;-72
2023/07/08 08:54:41;;;;;;;;;4.00;3.00;;;;;34.04;44.43;101421.28;4914117;28;50144;-69
2023/07/08 08:57:25;;;;;;;;;3.00;1.75;;;;;34.76;42.96;101433.59;4914619;28;49894;-69
2023/07/08 08:59:55;;;;;;;;;4.25;2.75;;;;;34.58;43.21;101402.16;4911423;28;50437;-70
2023/07/08 09:02:42;;;;;;;;;1.75;1.50;;;;;34.82;43.37;101446.78;4912905;28;50351;-70
2023/07/08 09:05:10;;;;;;;;;0.50;0.50;;;;;34.68;43.56;101444.19;4907619;28;50102;-70
2023/07/08 09:07:57;;;;;;;;;3.50;1.00;;;;;34.99;42.90;101453.81;4913724;28;49689;-70
2023/07/08 09:10:28;;;;;;;;;2.00;1.00;;;;;35.06;43.57;101444.22;4912568;28;50068;-70
2023/07/08 09:12:57;;;;;;;;;1.00;1.00;;;;;34.82;43.72;101441.34;4912662;28;49856;-71
2023/07/08 09:15:22;;;;;;;;;1.00;1.00;;;;;34.39;43.47;101444.34;4913185;28;49799;-70
2023/07/08 09:17:50;;;;;;;;;4.00;4.00;;;;;35.05;43.15;101442.50;4911397;28;49692;-70
2023/07/08 09:20:30;;;;;;;;;3.25;3.25;;;;;35.36;41.55;101434.81;4912690;28;49918;-73
2023/07/08 09:23:18;;;;;;;;;1.50;1.50;;;;;35.53;41.70;101432.63;4912854;28;49797;-73
2023/07/08 09:25:58;;;;;;;;;2.25;2.25;;;;;35.58;41.81;101431.41;4910929;28;49918;-70
2023/07/08 09:28:36;;;;;;;;;0.75;0.00;;;;;35.88;41.28;101433.75;4917260;28;50032;-68
2023/07/08 09:31:07;;;;;;;;;0.50;0.00;;;;;35.87;41.44;101423.78;4911445;28;51448;-68
2023/07/08 09:33:34;;;;;;;;;3.00;3.00;;;;;35.60;41.86;101440.34;4912697;28;49917;-67
2023/07/08 09:36:00;;;;;;;;;1.00;1.00;;;;;35.91;41.12;101452.66;4912724;28;49872;-68
2023/07/08 09:38:25;;;;;;;;;2.50;2.50;;;;;35.85;40.48;101432.97;4913629;28;49941;-68
2023/07/08 09:40:56;;;;;;;;;3.75;3.75;;;;;36.39;40.63;101439.88;4912970;28;50769;-68
2023/07/08 09:43:27;;;;;;;;;6.00;6.00;;;;;37.17;39.54;101447.44;4912770;28;49785;-68
2023/07/08 09:45:58;;;;;;;;;6.00;6.00;;;;;37.17;39.73;101431.00;4913073;28;49725;-68
2023/07/08 09:48:28;;;;;;;;;4.00;4.00;;;;;37.33;38.79;101442.47;4912990;28;49948;-68
2023/07/08 09:50:57;;;;;;;;;5.00;5.00;;;;;37.02;39.52;101429.50;4912683;28;51769;-68
2023/07/08 09:53:22;;;;;;;;;3.00;3.00;;;;;36.24;39.40;101443.75;4912891;28;49792;-68
2023/07/08 09:55:50;;;;;;;;;1.50;0.25;;;;;37.14;38.96;101437.56;4909773;28;50041;-68
2023/07/08 09:58:40;;;;;;;;;4.50;1.75;;;;;37.28;38.95;101431.00;4912749;28;49887;-75
2023/07/08 10:01:11;;;;;;;;;2.75;2.00;;;;;37.12;39.62;101425.00;4911970;28;50062;-68
2023/07/08 10:03:37;;;;;;;;;2.50;2.00;;;;;36.68;39.61;101440.34;4909584;28;49843;-68
2023/07/08 10:06:06;;;;;;;;;0.00;0.00;;;;;36.71;39.67;101423.69;4912305;28;50050;-68
2023/07/08 10:08:42;;;;;;;;;5.00;2.75;;;;;36.89;39.80;101426.88;4912674;28;49815;-67
2023/07/08 10:11:29;;;;;;;;;1.50;1.50;;;;;36.73;39.53;101404.41;4909212;28;50127;-66
2023/07/08 10:14:09;;;;;;;;;2.50;2.25;;;;;36.78;39.17;101422.22;4911137;28;49794;-67
2023/07/08 10:16:35;;;;;;;;;4.25;4.25;;;;;35.64;40.19;101420.91;4917296;28;50230;-67
2023/07/08 10:19:01;;;;;;;;;4.75;4.25;;;;;35.70;40.24;101422.28;4918700;28;50251;-71
2023/07/08 10:21:32;;;;;;;;;1.25;1.25;;;;;35.48;40.86;101420.28;4923016;28;49849;-67
2023/07/08 10:24:09;;;;;;;;;5.75;5.75;;;;;36.63;40.16;101427.03;4914164;28;50034;-68
2023/07/08 10:26:37;;;;;;;;;6.50;6.50;;;;;35.74;40.32;101423.84;4904772;28;50295;-67
2023/07/08 10:29:34;;;;;;;;;3.25;2.00;;;;;36.91;39.66;101423.00;4911280;28;50195;-68
2023/07/08 10:32:13;;;;;;;;;6.00;6.00;;;;;36.80;39.97;101425.69;4908502;28;49845;-67
2023/07/08 10:34:46;;;;;;;;;5.00;3.00;;;;;36.86;39.37;101429.81;4906033;28;49820;-72
2023/07/08 10:37:28;;;;;;;;;5.75;5.00;;;;;36.77;39.52;101438.72;4908063;28;49767;-71
2023/07/08 10:40:31;;;;;;;;;5.00;5.00;;;;;36.61;39.04;101441.81;4914492;28;49938;-70
2023/07/08 10:43:14;;;;;;;;;5.75;5.75;;;;;35.66;39.86;101426.25;4917181;28;50212;-71
2023/07/08 10:45:52;;;;;;;;;7.75;7.75;;;;;35.79;40.10;101429.81;4908929;28;50043;-72
2023/07/08 10:48:50;;;;;;;;;7.50;7.50;;;;;36.90;38.95;101434.09;4915052;28;49882;-71
2023/07/08 10:51:43;;;;;;;;;3.00;3.00;;;;;36.51;38.63;101429.84;4911864;28;50237;-70
2023/07/08 10:54:20;;;;;;;;;5.25;5.25;;;;;36.29;38.45;101436.06;4917795;28;50000;-70
2023/07/08 10:57:17;;;;;;;;;8.00;8.00;;;;;36.56;39.16;101439.44;4916323;28;50117;-71
2023/07/08 10:59:59;;;;;;;;;5.50;5.50;;;;;35.52;39.78;101422.69;4919060;28;50090;-71
2023/07/08 11:02:57;;;;;;;;;4.50;2.00;;;;;37.05;38.64;101429.22;4918678;28;49823;-70
2023/07/08 11:05:34;;;;;;;;;3.00;3.00;;;;;36.85;38.93;101420.75;4911829;28;50837;-70
2023/07/08 11:08:10;;;;;;;;;3.25;3.25;;;;;36.94;38.38;101414.53;4910885;28;49829;-71
2023/07/08 11:10:59;;;;;;;;;7.00;2.00;;;;;36.96;38.98;101414.41;4910709;28;50046;-71
2023/07/08 11:13:29;;;;;;;;;4.75;3.00;;;;;37.01;38.54;101412.19;4919676;28;50521;-71
2023/07/08 11:16:01;;;;;;;;;7.00;4.50;;;;;37.20;38.67;101414.31;4910865;28;50391;-70
2023/07/08 11:18:35;;;;;;;;;2.00;2.00;;;;;37.30;38.85;101415.34;4912657;28;49666;-69
2023/07/08 11:21:14;;;;;;;;;4.25;3.00;;;;;37.42;37.44;101417.06;4909147;28;50143;-69
2023/07/08 11:23:49;;;;;;;;;3.00;3.00;;;;;37.40;37.78;101416.34;4903881;28;49806;-70
2023/07/08 11:26:38;;;;;;;;;2.00;2.00;;;;;37.48;36.83;101397.41;4907889;28;49875;-71
2023/07/08 11:29:10;;;;;;;;;2.50;2.50;;;;;36.90;37.69;101412.19;4904737;28;50355;-70
2023/07/08 11:31:36;;;;;;;;;5.50;3.75;;;;;36.98;36.51;101415.19;4903748;28;49783;-68
2023/07/08 11:34:03;;;;;;;;;3.25;3.25;;;;;37.07;36.49;101408.09;4905762;28;49838;-69
2023/07/08 11:36:30;;;;;;;;;6.75;6.50;;;;;36.83;36.46;101392.66;4904681;28;50668;-68
2023/07/08 11:38:57;;;;;;;;;5.50;5.50;;;;;36.97;36.42;101408.84;4904015;28;50112;-67
2023/07/08 11:41:26;;;;;;;;;4.00;4.00;;;;;37.30;36.92;101423.56;4905873;28;49836;-72
2023/07/08 11:43:56;;;;;;;;;7.25;7.25;;;;;37.22;36.14;101409.59;4914132;28;50198;-68
2023/07/08 11:46:28;;;;;;;;;1.75;1.75;;;;;37.53;35.87;101402.50;4910156;28;50957;-67
2023/07/08 11:48:56;;;;;;;;;10.50;7.75;;;;;37.14;36.05;101398.38;4907174;28;50145;-72
2023/07/08 11:51:26;;;;;;;;;6.25;3.00;;;;;37.27;36.46;101390.94;4904968;28;49946;-70
2023/07/08 11:54:12;;;;;;;;;11.75;11.75;;;;;37.57;36.26;101394.91;4903190;28;50030;-74
2023/07/08 11:56:48;;;;;;;;;2.25;2.25;;;;;37.73;35.40;101392.59;4903817;28;50307;-75
2023/07/08 11:59:18;;;;;;;;;6.25;6.25;;;;;37.49;35.73;101387.31;4906078;28;49972;-75
2023/07/08 12:01:50;;;;;;;;;9.00;7.00;;;;;37.62;36.13;101377.06;4903774;28;49858;-76
2023/07/08 12:04:28;;;;;;;;;6.50;6.25;;;;;37.84;36.25;101381.66;4905524;28;50034;-76
2023/07/08 12:07:10;;;;;;;;;7.50;6.75;;;;;37.95;36.13;101376.16;4904845;28;50842;-72
2023/07/08 12:09:57;;;;;;;;;12.00;10.75;;;;;37.62;36.42;101376.19;4903528;28;50290;-71
2023/07/08 12:12:43;;;;;;;;;8.75;8.00;;;;;38.04;34.70;101377.22;4903801;28;50885;-75
2023/07/08 12:15:17;;;;;;;;;6.25;6.25;;;;;37.95;35.89;101378.88;4904262;28;50630;-71
2023/07/08 12:17:43;;;;;;;;;5.00;5.00;;;;;37.33;36.15;101364.94;4904382;28;49958;-74
2023/07/08 12:20:26;;;;;;;;;69.50;58.00;;;;;37.39;35.82;101376.25;4904074;28;49896;-76
2023/07/08 12:22:52;;;;;;;;;85.50;65.50;;;;;36.83;36.76;101368.03;4902880;28;49820;-73
2023/07/08 12:25:21;;;;;;;;;40.00;37.75;;;;;37.59;37.19;101360.03;4904933;28;50688;-73
2023/07/08 12:27:47;;;;;;;;;27.50;26.75;;;;;37.02;36.93;101341.91;4903926;28;50544;-72
2023/07/08 12:30:14;;;;;;;;;4.75;4.75;;;;;37.43;35.69;101364.03;4903159;28;50197;-71
2023/07/08 12:32:40;;;;;;;;;11.50;11.50;;;;;37.12;35.89;101359.31;4903412;28;49883;-71
2023/07/08 12:35:25;;;;;;;;;21.50;21.50;;;;;37.74;35.38;101364.25;4902863;28;49723;-70
2023/07/08 12:37:57;;;;;;;;;11.50;9.25;;;;;37.69;35.70;101361.88;4900942;28;49819;-70
2023/07/08 12:40:23;;;;;;;;;24.00;20.50;;;;;37.07;36.21;101362.44;4905427;28;50156;-76
2023/07/08 12:42:49;;;;;;;;;10.00;9.00;;;;;37.70;35.00;101365.47;4907676;28;49828;-71
2023/07/08 12:45:17;;;;;;;;;6.50;5.25;;;;;38.27;34.49;101353.34;4902118;28;50222;-70
2023/07/08 12:47:43;;;;;;;;;2.50;2.50;;;;;38.08;34.47;101368.59;4904556;28;51094;-70
2023/07/08 12:50:11;;;;;;;;;9.00;4.75;;;;;38.59;34.10;101370.59;4906491;28;49968;-70
2023/07/08 12:52:36;;;;;;;;;6.75;6.75;;;;;38.25;33.25;101374.56;4903790;28;50164;-69
2023/07/08 12:55:02;;;;;;;;;9.00;7.00;;;;;38.23;32.92;101366.47;4903193;28;50202;-69
2023/07/08 12:57:27;;;;;;;;;7.00;6.00;;;;;38.30;32.09;101358.56;4903100;28;50420;-70
2023/07/08 12:59:53;;;;;;;;;6.75;6.75;;;;;38.45;32.38;101365.44;4904630;28;50077;-71
2023/07/08 13:02:21;;;;;;;;;6.00;5.00;;;;;38.82;32.07;101354.88;4904138;28;49899;-71
2023/07/08 13:04:54;;;;;;;;;2.00;2.00;;;;;39.10;32.03;101352.41;4907036;28;49786;-70
2023/07/08 13:07:41;;;;;;;;;4.50;4.50;;;;;39.22;31.42;101323.84;4916322;28;49940;-71
2023/07/08 13:10:15;;;;;;;;;8.75;8.75;;;;;39.21;31.63;101352.31;4911131;28;50063;-68
2023/07/08 13:12:40;;;;;;;;;1.50;1.50;;;;;39.01;31.48;101345.00;4914440;28;50175;-72
2023/07/08 13:15:14;;;;;;;;;0.00;0.00;;;;;39.67;31.80;101359.13;4918121;28;50017;-70
2023/07/08 13:17:40;;;;;;;;;5.00;5.00;;;;;39.19;31.58;101348.84;4909316;28;49840;-69
2023/07/08 13:20:14;;;;;;;;;1.00;1.00;;;;;39.89;30.93;101372.59;4918382;28;49780;-73
2023/07/08 13:22:43;;;;;;;;;3.25;3.25;;;;;39.49;31.31;101359.78;4914307;28;50118;-70
2023/07/08 13:25:15;;;;;;;;;8.00;4.00;;;;;40.21;30.29;101363.22;4914701;28;50029;-73
2023/07/08 13:27:41;;;;;;;;;5.50;4.00;;;;;39.72;31.16;101363.16;4916584;28;51436;-72
2023/07/08 13:30:23;;;;;;;;;2.75;2.75;;;;;40.47;29.89;101360.75;4920231;28;50093;-72
2023/07/08 13:32:51;;;;;;;;;5.75;5.75;;;;;39.90;30.35;101348.72;4920621;28;50091;-71
2023/07/08 13:35:44;;;;;;;;;4.25;4.25;;;;;40.45;29.24;101335.28;4924658;28;50094;-70
2023/07/08 13:38:16;;;;;;;;;6.25;6.00;;;;;40.43;29.66;101335.41;4912150;28;51107;-70
2023/07/08 13:40:57;;;;;;;;;2.25;2.25;;;;;40.41;29.31;101328.28;4913418;28;49814;-70
2023/07/08 13:43:31;;;;;;;;;8.00;8.00;;;;;40.55;29.37;101339.75;4915450;28;50162;-72
2023/07/08 13:45:56;;;;;;;;;8.50;8.50;;;;;40.10;29.76;101341.38;4915508;28;49975;-72
2023/07/08 13:48:29;;;;;;;;;6.50;6.50;;;;;40.89;29.26;101320.78;4919852;28;50909;-71
2023/07/08 13:51:18;;;;;;;;;3.00;3.00;;;;;41.24;29.07;101330.19;4918905;28;49794;-71
2023/07/08 13:53:50;;;;;;;;;6.00;6.00;;;;;41.36;28.80;101326.22;4910268;28;49921;-71
2023/07/08 13:56:15;;;;;;;;;6.00;4.00;;;;;40.95;29.12;101324.84;4917737;28;49779;-71
2023/07/08 13:58:47;;;;;;;;;4.00;4.00;;;;;41.79;28.00;101321.00;4913877;28;49831;-72
2023/07/08 14:01:18;;;;;;;;;7.25;6.25;;;;;41.88;28.15;101322.81;4918611;28;49811;-71
2023/07/08 14:03:44;;;;;;;;;4.00;4.00;;;;;41.36;28.24;101326.22;4915755;28;50077;-71
2023/07/08 14:06:18;;;;;;;;;6.25;4.00;;;;;42.01;27.42;101326.06;4920165;28;49763;-72
2023/07/08 14:08:43;;;;;;;;;1.25;1.25;;;;;41.31;27.56;101327.69;4916295;28;50741;-72
2023/07/08 14:11:09;;;;;;;;;6.75;4.00;;;;;41.51;27.84;101328.47;4920938;28;49668;-72
2023/07/08 14:13:34;;;;;;;;;3.00;3.00;;;;;41.70;27.27;101325.63;4916533;28;50083;-71
2023/07/08 14:16:01;;;;;;;;;8.00;7.00;;;;;42.14;26.75;101332.06;4922616;28;49756;-70
2023/07/08 14:18:26;;;;;;;;;1.00;1.00;;;;;41.76;26.16;101330.47;4918658;28;49805;-71
2023/07/08 14:20:52;;;;;;;;;7.75;7.75;;;;;41.65;26.83;101327.91;4923333;28;50178;-71
2023/07/08 14:23:18;;;;;;;;;4.00;4.00;;;;;41.52;26.28;101332.97;4918404;28;49880;-70
2023/07/08 14:25:44;;;;;;;;;3.50;3.50;;;;;41.27;26.20;101335.38;4924508;28;50060;-71
2023/07/08 14:28:09;;;;;;;;;1.50;1.00;;;;;41.37;27.08;101325.22;4918276;28;50575;-70
2023/07/08 14:30:41;;;;;;;;;2.75;2.75;;;;;41.82;26.46;101331.75;4918996;28;50100;-70
2023/07/08 14:33:10;;;;;;;;;1.25;1.00;;;;;41.70;26.71;101337.50;4916621;28;50052;-71
2023/07/08 14:35:35;;;;;;;;;1.00;1.00;;;;;40.92;26.55;101316.88;4916932;28;50076;-70
2023/07/08 14:38:00;;;;;;;;;1.00;1.00;;;;;41.13;26.99;101327.66;4920155;28;50710;-70
2023/07/08 14:40:33;;;;;;;;;2.00;2.00;;;;;41.13;26.17;101331.28;4916906;28;50198;-70
2023/07/08 14:43:03;;;;;;;;;4.00;4.00;;;;;41.45;26.56;101330.81;4917033;28;50189;-71
2023/07/08 14:45:31;;;;;;;;;2.25;1.00;;;;;41.41;26.73;101332.16;4915052;28;49949;-70
2023/07/08 14:47:57;;;;;;;;;2.75;2.75;;;;;41.07;26.73;101326.38;4916889;28;50601;-71
2023/07/08 14:50:22;;;;;;;;;3.00;2.00;;;;;41.26;26.32;101319.03;4923106;28;50166;-71
2023/07/08 14:52:47;;;;;;;;;5.00;5.00;;;;;41.23;26.69;101305.56;4913038;28;49737;-70
2023/07/08 14:55:13;;;;;;;;;2.25;2.25;;;;;41.23;26.33;101316.59;4903461;28;53638;-69
2023/07/08 14:57:45;;;;;;;;;8.00;7.25;;;;;42.18;25.92;101313.31;4910136;28;51547;-71
2023/07/08 15:00:16;;;;;;;;;1.25;1.25;;;;;42.19;25.78;101315.91;4905142;28;49872;-68
2023/07/08 15:02:43;;;;;;;;;4.75;4.75;;;;;41.80;26.04;101309.84;4911007;28;49776;-68
2023/07/08 15:05:17;;;;;;;;;3.00;3.00;;;;;42.10;25.44;101292.00;4909003;28;50128;-68
2023/07/08 15:07:42;;;;;;;;;1.50;1.50;;;;;41.29;25.73;101305.81;4915214;28;49833;-68
2023/07/08 15:10:09;;;;;;;;;2.50;2.00;;;;;41.47;25.61;101306.72;4914978;28;50169;-68
2023/07/08 15:12:34;;;;;;;;;2.00;2.00;;;;;41.28;26.06;101306.84;4914244;28;50138;-68
2023/07/08 15:15:00;;;;;;;;;8.75;8.50;;;;;41.51;25.52;101295.41;4916898;28;50018;-68
2023/07/08 15:17:25;;;;;;;;;1.25;1.25;;;;;41.88;25.85;101298.00;4914831;28;51479;-68
2023/07/08 15:19:50;;;;;;;;;6.25;5.25;;;;;42.07;24.73;101296.97;4917619;28;64013;-68
2023/07/08 15:22:16;;;;;;;;;7.25;7.25;;;;;42.02;24.67;101294.69;4916032;28;49696;-68
2023/07/08 15:24:42;;;;;;;;;7.00;7.00;;;;;42.11;24.87;101301.16;4919644;28;49788;-68
2023/07/08 15:27:12;;;;;;;;;7.00;7.00;;;;;42.89;24.05;101279.94;4917418;28;49862;-67
2023/07/08 15:29:37;;;;;;;;;2.50;2.50;;;;;42.52;23.96;101286.66;4904735;28;49901;-69
2023/07/08 15:32:03;;;;;;;;;6.25;2.50;;;;;42.80;24.60;101290.09;4919041;28;49800;-68
2023/07/08 15:34:28;;;;;;;;;1.50;1.50;;;;;43.96;22.38;101296.66;4918152;28;49680;-68
2023/07/08 15:36:54;;;;;;;;;9.00;7.50;;;;;45.20;21.45;101285.16;4913078;28;49833;-70
2023/07/08 15:39:20;;;;;;;;;3.25;3.00;;;;;47.51;19.79;101318.66;4918234;28;50115;-68
2023/07/08 15:41:46;;;;;;;;;4.75;4.75;;;;;48.60;19.18;101298.88;4916127;28;49713;-70
2023/07/08 15:44:12;;;;;;;;;2.25;2.25;;;;;48.71;19.24;101312.25;4910810;28;49999;-69
2023/07/08 15:46:48;;;;;;;;;4.50;2.00;;;;;51.26;16.14;101301.78;4912928;28;51804;-70
2023/07/08 15:49:27;;;;;;;;;1.00;1.00;;;;;52.83;15.57;101300.72;4917861;28;50243;-69
2023/07/08 15:51:52;;;;;;;;;4.50;4.50;;;;;49.71;16.99;101271.72;4914203;28;49823;-68
2023/07/08 15:54:19;;;;;;;;;3.25;3.25;;;;;48.37;18.26;101291.69;4915324;28;50085;-70
2023/07/08 15:56:46;;;;;;;;;9.25;8.50;;;;;47.18;18.86;101286.81;4909383;28;50707;-70
2023/07/08 15:59:17;;;;;;;;;4.00;3.00;;;;;46.46;19.00;101268.91;4911907;28;50188;-70
2023/07/08 16:01:43;;;;;;;;;2.00;2.00;;;;;45.38;20.43;101284.91;4913370;28;49673;-69
2023/07/08 16:04:38;;;;;;;;;1.50;1.00;;;;;45.62;20.20;101281.94;4914288;28;49760;-69
2023/07/08 16:07:03;;;;;;;;;0.50;0.50;;;;;45.93;19.68;101290.19;4900945;28;50626;-70
2023/07/08 16:09:29;;;;;;;;;3.00;3.00;;;;;46.31;19.22;101284.66;4910224;28;49918;-70
2023/07/08 16:11:54;;;;;;;;;2.00;2.00;;;;;46.15;19.25;101284.84;4912201;28;50069;-70
2023/07/08 16:14:20;;;;;;;;;3.75;2.25;;;;;48.64;17.21;101289.94;4914526;28;49938;-70
2023/07/08 16:16:45;;;;;;;;;4.75;4.75;;;;;49.27;16.34;101273.06;4912951;28;50020;-70
2023/07/08 16:19:12;;;;;;;;;3.50;2.00;;;;;49.16;16.96;101273.69;4915749;28;50057;-70
2023/07/08 16:21:38;;;;;;;;;2.00;2.00;;;;;49.16;16.90;101270.91;4914550;28;50221;-70
2023/07/08 16:24:04;;;;;;;;;5.50;5.25;;;;;47.95;17.40;101281.44;4918132;28;49970;-71
2023/07/08 16:26:29;;;;;;;;;6.00;5.00;;;;;46.82;18.06;101270.97;4915091;28;49873;-71
2023/07/08 16:28:56;;;;;;;;;6.75;5.00;;;;;46.16;18.73;101276.34;4920025;28;49988;-70
2023/07/08 16:31:24;;;;;;;;;4.00;4.00;;;;;45.90;19.32;101268.38;4916685;28;49812;-70
2023/07/08 16:33:50;;;;;;;;;3.00;3.00;;;;;46.42;19.05;101264.75;4918532;28;50054;-69
2023/07/08 16:36:18;;;;;;;;;4.00;4.00;;;;;46.54;18.44;101267.97;4903854;28;63998;-70
2023/07/08 16:38:44;;;;;;;;;4.00;4.00;;;;;45.38;18.64;101252.50;4912653;28;49772;-69
2023/07/08 16:41:19;;;;;;;;;6.00;6.00;;;;;45.44;19.31;101236.16;4914569;28;49973;-70
2023/07/08 16:43:44;;;;;;;;;3.50;3.50;;;;;44.59;19.62;101247.13;4905590;28;50162;-70
2023/07/08 16:46:12;;;;;;;;;5.00;3.00;;;;;44.26;20.26;101242.53;4912713;28;50467;-69
2023/07/08 16:48:38;;;;;;;;;1.25;1.25;;;;;43.75;21.31;101253.97;4919740;28;50128;-69
2023/07/08 16:51:04;;;;;;;;;1.00;1.00;;;;;43.46;21.02;101249.78;4918802;28;49814;-69
2023/07/08 16:53:30;;;;;;;;;2.25;0.75;;;;;42.84;20.75;101233.47;4912307;28;50617;-69
2023/07/08 16:55:55;;;;;;;;;2.25;2.25;;;;;42.88;21.24;101249.75;4913853;28;50730;-70
2023/07/08 16:58:20;;;;;;;;;0.00;0.00;;;;;42.69;21.45;101253.63;4915638;28;50157;-71
2023/07/08 17:00:46;;;;;;;;;5.25;3.00;;;;;42.40;21.83;101248.44;4915258;28;49970;-71
2023/07/08 17:03:15;;;;;;;;;1.25;1.25;;;;;42.84;21.87;101258.34;4916783;28;50184;-70
2023/07/08 17:05:41;;;;;;;;;1.25;1.25;;;;;42.19;22.09;101263.50;4915052;28;49774;-71
2023/07/08 17:08:13;;;;;;;;;2.75;2.75;;;;;42.56;21.81;101274.28;4914489;28;50188;-71
2023/07/08 17:10:38;;;;;;;;;5.50;5.50;;;;;41.46;22.37;101266.41;4917892;28;49782;-70
2023/07/08 17:13:03;;;;;;;;;6.25;6.25;;;;;41.27;22.67;101268.41;4906594;28;49837;-69
2023/07/08 17:15:32;;;;;;;;;6.00;3.50;;;;;41.55;22.86;101272.88;4914753;28;50655;-70
2023/07/08 17:18:01;;;;;;;;;0.00;0.00;;;;;41.38;23.57;101277.34;4915437;28;49821;-70